createdAt,value
2022-10-06T00:01:06.630Z,6.53
2022-10-06T00:03:34.721Z,7.03
2022-10-06T00:06:04.828Z,7.33
2022-10-06T00:08:33.814Z,7.10
2022-10-06T00:11:02.012Z,6.50
2022-10-06T00:13:30.852Z,7.10
2022-10-06T00:16:00.141Z,6.43
2022-10-06T00:18:29.442Z,6.43
2022-10-06T00:20:59.078Z,7.30
2022-10-06T00:23:29.851Z,7.80
2022-10-06T00:25:58.098Z,6.83
2022-10-06T00:28:27.136Z,7.37
2022-10-06T00:30:56.386Z,8.30
2022-10-06T00:33:24.939Z,9.50
2022-10-06T00:35:57.773Z,6.27
2022-10-06T00:38:26.620Z,7.10
2022-10-06T00:40:56.514Z,5.90
2022-10-06T00:43:52.213Z,6.47
2022-10-06T00:46:28.202Z,6.60
2022-10-06T00:49:00.822Z,6.37
2022-10-06T00:51:30.309Z,6.87
2022-10-06T00:53:58.848Z,6.57
2022-10-06T00:56:28.498Z,6.50
2022-10-06T00:58:56.503Z,6.63
2022-10-06T01:01:25.067Z,6.30
2022-10-06T01:03:56.520Z,6.43
2022-10-06T01:06:24.588Z,5.90
2022-10-06T01:08:53.001Z,7.10
2022-10-06T01:11:21.060Z,7.60
2022-10-06T01:13:50.411Z,8.00
2022-10-06T01:16:22.003Z,6.40
2022-10-06T01:18:50.093Z,7.27
2022-10-06T01:21:24.532Z,7.57
2022-10-06T01:23:54.054Z,6.63
2022-10-06T01:26:24.028Z,7.13
2022-10-06T01:28:52.475Z,7.60
2022-10-06T01:35:47.348Z,6.47
2022-10-06T01:38:15.556Z,7.40
2022-10-06T01:40:46.113Z,6.77
2022-10-06T01:43:14.465Z,7.67
2022-10-06T01:45:44.220Z,7.30
2022-10-06T01:48:12.279Z,7.47
2022-10-06T01:50:41.851Z,12.67
2022-10-06T01:53:09.948Z,10.67
2022-10-06T01:55:38.035Z,12.57
2022-10-06T01:58:09.291Z,11.70
2022-10-06T02:00:37.674Z,13.70
2022-10-06T02:03:05.743Z,8.77
2022-10-06T02:05:33.929Z,8.60
2022-10-06T02:08:02.577Z,13.27
2022-10-06T02:10:31.676Z,16.03
2022-10-06T02:13:00.614Z,11.90
2022-10-06T02:15:33.263Z,12.23
2022-10-06T02:18:01.371Z,11.43
2022-10-06T02:20:29.452Z,14.40
2022-10-06T02:22:57.484Z,15.57
2022-10-06T02:25:25.596Z,13.30
2022-10-06T02:27:55.653Z,14.50
2022-10-06T02:30:23.921Z,12.27
2022-10-06T02:32:54.369Z,11.20
2022-10-06T02:35:22.959Z,7.97
2022-10-06T02:37:51.474Z,9.50
2022-10-06T02:40:21.054Z,12.67
2022-10-06T02:43:14.269Z,10.53
2022-10-06T02:45:54.161Z,10.20
2022-10-06T02:48:24.428Z,8.80
2022-10-06T02:50:58.926Z,6.30
2022-10-06T02:53:27.615Z,11.67
2022-10-06T02:56:00.668Z,11.33
2022-10-06T02:58:30.253Z,8.00
2022-10-06T03:01:03.953Z,12.47
2022-10-06T03:03:34.982Z,23.03
2022-10-06T03:06:05.258Z,23.83
2022-10-06T03:08:35.161Z,18.60
2022-10-06T03:11:04.028Z,25.67
2022-10-06T03:13:32.333Z,27.13
2022-10-06T03:16:00.729Z,23.57
2022-10-06T03:18:31.614Z,26.87
2022-10-06T03:21:02.793Z,17.30
2022-10-06T03:23:31.043Z,20.50
2022-10-06T03:25:59.428Z,13.70
2022-10-06T03:28:28.657Z,17.43
2022-10-06T03:31:02.749Z,16.70
2022-10-06T03:33:32.148Z,16.93
2022-10-06T03:36:03.135Z,25.50
2022-10-06T03:38:33.079Z,20.27
2022-10-06T03:41:05.989Z,21.00
2022-10-06T03:43:34.701Z,10.67
2022-10-06T03:46:04.067Z,15.50
2022-10-06T03:48:35.761Z,17.57
2022-10-06T03:51:07.274Z,13.03
2022-10-06T03:53:36.206Z,11.37
2022-10-06T03:56:06.190Z,9.87
2022-10-06T03:58:36.223Z,12.50
2022-10-06T04:01:08.000Z,25.33
2022-10-06T04:03:36.862Z,27.33
2022-10-06T04:06:08.510Z,39.27
2022-10-06T04:08:37.021Z,36.37
2022-10-06T04:11:09.306Z,24.60
2022-10-06T04:13:38.808Z,21.33
2022-10-06T04:16:14.544Z,26.37
2022-10-06T04:18:42.835Z,32.30
2022-10-06T04:21:12.565Z,40.30
2022-10-06T04:23:40.693Z,61.60
2022-10-06T04:26:12.623Z,45.30
2022-10-06T04:28:44.151Z,45.00
2022-10-06T04:31:19.118Z,85.07
2022-10-06T04:33:48.540Z,89.20
2022-10-06T04:36:22.817Z,66.50
2022-10-06T04:38:56.273Z,51.30
2022-10-06T04:41:26.563Z,42.37
2022-10-06T04:43:55.543Z,40.80
2022-10-06T04:46:42.279Z,37.07
2022-10-06T04:49:19.430Z,47.63
2022-10-06T04:51:50.794Z,37.30
2022-10-06T04:54:19.713Z,49.27
2022-10-06T04:56:50.976Z,62.53
2022-10-06T04:59:42.294Z,70.47
2022-10-06T05:02:11.627Z,91.80
2022-10-06T05:04:40.215Z,118.27
2022-10-06T05:07:10.290Z,87.23
2022-10-06T05:09:38.525Z,61.10
2022-10-06T05:12:08.993Z,57.80
2022-10-06T05:14:37.189Z,66.27
2022-10-06T05:17:06.122Z,45.23
2022-10-06T05:19:35.736Z,51.67
2022-10-06T05:22:04.402Z,70.27
2022-10-06T05:24:35.049Z,53.50
2022-10-06T05:27:03.967Z,68.23
2022-10-06T05:29:35.163Z,92.70
2022-10-06T05:32:05.077Z,85.70
2022-10-06T05:34:34.343Z,83.30
2022-10-06T05:37:02.682Z,90.27
2022-10-06T05:39:31.052Z,61.10
2022-10-06T05:42:01.099Z,98.20
2022-10-06T05:44:29.167Z,94.07
2022-10-06T05:47:01.104Z,100.97
2022-10-06T05:49:29.891Z,92.70
2022-10-06T05:52:01.646Z,93.17
2022-10-06T05:54:32.468Z,112.57
2022-10-06T05:57:02.725Z,113.53
2022-10-06T05:59:33.351Z,99.03
2022-10-06T06:02:02.665Z,83.90
2022-10-06T06:04:38.737Z,64.70
2022-10-06T06:07:07.334Z,140.87
2022-10-06T06:09:35.820Z,144.87
2022-10-06T06:12:06.755Z,106.20
2022-10-06T06:14:57.746Z,102.77
2022-10-06T06:17:32.106Z,121.43
2022-10-06T06:20:00.886Z,157.60
2022-10-06T06:22:29.343Z,157.60
2022-10-06T06:24:57.441Z,181.33
2022-10-06T06:27:27.273Z,318.13
2022-10-06T06:29:57.424Z,205.40
2022-10-06T06:32:27.464Z,243.47
2022-10-06T06:34:55.947Z,274.27
2022-10-06T06:37:24.252Z,269.83
2022-10-06T06:39:52.540Z,251.57
2022-10-06T06:42:21.871Z,264.90
2022-10-06T06:44:59.388Z,239.50
2022-10-06T06:47:40.561Z,300.53
2022-10-06T06:50:10.764Z,333.73
2022-10-06T06:52:41.925Z,382.27
2022-10-06T06:55:12.583Z,327.50
2022-10-06T06:57:42.503Z,359.60
2022-10-06T07:00:13.224Z,381.87
2022-10-06T07:02:41.913Z,337.67
2022-10-06T07:05:11.565Z,316.07
2022-10-06T07:11:58.093Z,301.40
2022-10-06T07:14:27.685Z,383.10
2022-10-06T07:17:14.744Z,441.03
2022-10-06T07:20:05.540Z,342.97
2022-10-06T07:22:51.537Z,400.77
2022-10-06T07:25:26.076Z,356.07
2022-10-06T07:28:00.527Z,439.63
2022-10-06T07:30:40.871Z,360.13
2022-10-06T07:33:16.307Z,407.90
2022-10-06T07:35:45.960Z,401.20
2022-10-06T07:38:16.008Z,416.00
2022-10-06T07:41:14.572Z,355.10
2022-10-06T07:43:37.619Z,389.07
2022-10-06T07:46:11.004Z,335.63
2022-10-06T07:48:50.386Z,299.83
2022-10-06T07:51:20.314Z,332.40
2022-10-06T07:53:51.787Z,320.63
2022-10-06T07:56:45.940Z,303.90
2022-10-06T07:59:14.088Z,928.65
2022-10-06T08:01:44.594Z,317.60
2022-10-06T08:04:39.471Z,286.97
2022-10-06T08:07:10.641Z,167.63
2022-10-06T08:09:38.740Z,150.77
2022-10-06T08:12:37.622Z,128.00
2022-10-06T08:15:07.836Z,137.67
2022-10-06T08:17:37.469Z,183.10
2022-10-06T08:20:09.269Z,133.73
2022-10-06T08:22:38.843Z,103.63
2022-10-06T08:25:09.581Z,81.63
2022-10-06T08:27:38.831Z,46.20
2022-10-06T08:30:08.338Z,34.30
2022-10-06T08:32:36.454Z,32.47
2022-10-06T08:35:04.768Z,21.57
2022-10-06T08:37:35.490Z,21.33
2022-10-06T08:40:03.638Z,16.33
2022-10-06T08:42:40.069Z,14.67
2022-10-06T08:45:14.717Z,12.10
2022-10-06T08:47:50.684Z,11.20
2022-10-06T08:50:21.399Z,9.67
2022-10-06T08:52:56.156Z,8.33
2022-10-06T08:55:36.607Z,7.63
2022-10-06T08:58:23.533Z,7.23
2022-10-06T09:00:56.770Z,6.07
2022-10-06T09:03:29.629Z,6.53
2022-10-06T09:06:02.011Z,6.13
2022-10-06T09:08:41.859Z,5.83
2022-10-06T09:11:20.723Z,5.33
2022-10-06T09:13:53.557Z,5.50
2022-10-06T09:16:28.130Z,5.07
2022-10-06T09:19:09.006Z,5.13
2022-10-06T09:21:41.099Z,4.97
2022-10-06T09:24:15.249Z,4.43
2022-10-06T09:26:45.481Z,4.70
2022-10-06T09:29:14.666Z,10.45
2022-10-06T09:31:44.295Z,5.47
2022-10-06T09:34:20.313Z,4.13
2022-10-06T09:37:03.102Z,4.70
2022-10-06T09:39:36.999Z,3.87
2022-10-06T09:42:08.041Z,4.30
2022-10-06T09:44:48.211Z,4.20
2022-10-06T09:47:39.076Z,4.10
2022-10-06T09:50:20.618Z,3.70
2022-10-06T09:53:07.350Z,4.23
2022-10-06T09:55:56.576Z,4.03
2022-10-06T09:58:32.855Z,3.97
2022-10-06T10:01:02.614Z,3.80
2022-10-06T10:04:20.168Z,4.00
2022-10-06T10:06:40.195Z,4.00
2022-10-06T10:09:22.286Z,4.00
2022-10-06T10:12:28.087Z,3.90
2022-10-06T10:15:01.831Z,3.90
2022-10-06T10:17:40.797Z,3.90
2022-10-06T10:20:24.642Z,3.80
2022-10-06T10:22:53.687Z,3.90
2022-10-06T10:25:34.413Z,3.80
2022-10-06T10:28:15.179Z,3.70
2022-10-06T10:30:49.987Z,3.83
2022-10-06T10:33:26.911Z,3.80
2022-10-06T10:35:57.039Z,4.00
2022-10-06T10:38:26.969Z,4.00
2022-10-06T10:41:00.815Z,4.00
2022-10-06T10:43:32.745Z,3.83
2022-10-06T10:46:05.253Z,4.13
2022-10-06T10:48:37.739Z,3.90
2022-10-06T10:51:08.684Z,3.87
2022-10-06T10:53:44.486Z,4.23
2022-10-06T10:56:16.168Z,3.70
2022-10-06T10:58:46.909Z,3.87
2022-10-06T11:01:23.583Z,3.57
2022-10-06T11:03:56.749Z,3.67
2022-10-06T11:06:55.097Z,3.40
2022-10-06T11:09:27.493Z,3.50
2022-10-06T11:12:04.850Z,3.77
2022-10-06T11:14:50.129Z,3.97
2022-10-06T11:17:29.695Z,4.20
2022-10-06T11:20:04.031Z,3.50
2022-10-06T11:22:41.706Z,3.30
2022-10-06T11:25:19.393Z,3.10
2022-10-06T11:27:54.498Z,3.03
2022-10-06T11:30:26.524Z,3.43
2022-10-06T11:33:04.200Z,3.37
2022-10-06T11:35:36.193Z,3.50
2022-10-06T11:38:09.155Z,4.07
2022-10-06T11:40:50.716Z,3.30
2022-10-06T11:43:28.619Z,4.30
2022-10-06T11:46:04.979Z,3.10
2022-10-06T11:48:34.791Z,3.27
2022-10-06T11:51:31.331Z,3.70
2022-10-06T11:53:59.823Z,3.77
2022-10-06T11:56:38.257Z,3.80
2022-10-06T11:59:31.468Z,3.77
2022-10-06T12:02:02.169Z,3.87
2022-10-06T12:04:30.870Z,3.43
2022-10-06T12:07:03.938Z,3.70
2022-10-06T12:09:41.274Z,3.70
2022-10-06T12:13:05.486Z,3.63
2022-10-06T12:18:51.218Z,3.50
2022-10-06T12:21:32.011Z,3.60
2022-10-06T12:24:05.340Z,3.70
2022-10-06T12:26:40.045Z,3.60
2022-10-06T12:29:22.966Z,3.60
2022-10-06T12:31:59.230Z,3.00
2022-10-06T12:35:03.136Z,3.60
2022-10-06T12:37:42.075Z,3.60
2022-10-06T12:40:59.572Z,3.47
2022-10-06T12:43:33.535Z,3.70
2022-10-06T12:46:06.211Z,3.73
2022-10-06T12:48:42.933Z,3.80
2022-10-06T12:51:25.317Z,3.70
2022-10-06T12:54:00.866Z,3.80
2022-10-06T12:56:31.460Z,3.40
2022-10-06T12:59:02.699Z,3.33
2022-10-06T13:01:31.201Z,3.50
2022-10-06T13:04:00.494Z,3.57
2022-10-06T13:06:30.030Z,3.67
2022-10-06T13:09:07.636Z,3.33
2022-10-06T13:11:35.872Z,3.47
2022-10-06T13:14:13.449Z,3.50
2022-10-06T13:16:43.297Z,4.17
2022-10-06T13:19:19.551Z,3.63
2022-10-06T13:21:49.165Z,3.53
2022-10-06T13:24:20.585Z,3.40
2022-10-06T13:26:49.164Z,3.70
2022-10-06T13:29:20.594Z,3.40
2022-10-06T13:31:52.835Z,4.03
2022-10-06T13:34:26.346Z,3.07
2022-10-06T13:36:56.055Z,3.30
2022-10-06T13:39:25.706Z,3.80
2022-10-06T13:41:56.077Z,3.50
2022-10-06T13:45:14.371Z,3.53
2022-10-06T13:47:42.531Z,4.03
2022-10-06T13:50:19.798Z,3.77
2022-10-06T13:52:50.712Z,4.00
2022-10-06T13:55:20.432Z,3.63
2022-10-06T13:57:50.233Z,3.40
2022-10-06T14:00:21.681Z,3.57
2022-10-06T14:02:51.399Z,3.40
2022-10-06T14:05:24.184Z,3.30
2022-10-06T14:07:55.799Z,3.80
2022-10-06T14:10:28.237Z,3.70
2022-10-06T14:12:56.563Z,3.97
2022-10-06T14:15:27.086Z,3.27
2022-10-06T14:17:56.829Z,3.90
2022-10-06T14:20:46.996Z,3.80
2022-10-06T14:23:45.310Z,3.80
2022-10-06T14:26:14.383Z,4.10
2022-10-06T14:28:48.484Z,3.53
2022-10-06T14:31:17.037Z,3.93
2022-10-06T14:33:46.470Z,3.57
2022-10-06T14:36:20.672Z,4.10
2022-10-06T14:38:51.446Z,4.00
2022-10-06T14:41:20.463Z,3.90
2022-10-06T14:43:49.060Z,3.77
2022-10-06T14:46:17.186Z,3.87
2022-10-06T14:48:45.384Z,3.70
2022-10-06T14:51:13.453Z,4.33
2022-10-06T14:53:41.552Z,4.20
2022-10-06T14:56:14.240Z,3.87
2022-10-06T14:58:45.635Z,3.80
2022-10-06T15:01:17.214Z,3.90
2022-10-06T15:03:51.326Z,3.70
2022-10-06T15:06:37.723Z,4.00
2022-10-06T15:09:08.977Z,3.67
2022-10-06T15:11:39.219Z,4.00
2022-10-06T15:14:08.640Z,3.77
2022-10-06T15:16:40.668Z,3.87
2022-10-06T15:19:11.037Z,3.73
2022-10-06T15:21:40.034Z,4.10
2022-10-06T15:24:09.037Z,4.03
2022-10-06T15:26:55.812Z,3.80
2022-10-06T15:29:27.137Z,6.30
2022-10-06T15:31:55.379Z,4.70
2022-10-06T15:34:25.341Z,4.20
2022-10-06T15:36:54.651Z,4.00
2022-10-06T15:39:24.460Z,4.20
2022-10-06T15:41:54.372Z,4.00
2022-10-06T15:44:23.211Z,4.10
2022-10-06T15:46:52.468Z,4.20
2022-10-06T15:49:21.871Z,4.43
2022-10-06T15:51:52.409Z,4.10
2022-10-06T15:54:23.556Z,4.70
2022-10-06T15:56:54.649Z,3.90
2022-10-06T15:59:24.199Z,4.33
2022-10-06T16:01:56.047Z,4.20
2022-10-06T16:04:31.660Z,4.13
2022-10-06T16:07:00.258Z,4.57
2022-10-06T16:09:30.423Z,4.53
2022-10-06T16:12:01.760Z,4.57
2022-10-06T16:14:30.289Z,4.20
2022-10-06T16:17:01.893Z,3.87
2022-10-06T16:19:31.885Z,4.00
2022-10-06T16:22:01.342Z,4.40
2022-10-06T16:24:29.412Z,5.70
2022-10-06T16:27:00.115Z,4.83
2022-10-06T16:29:29.031Z,6.80
2022-10-06T16:31:57.215Z,5.60
2022-10-06T16:34:25.601Z,7.17
2022-10-06T16:36:53.705Z,6.00
2022-10-06T16:39:23.344Z,5.90
2022-10-06T16:41:51.976Z,5.47
2022-10-06T16:44:21.504Z,6.20
2022-10-06T16:46:49.680Z,6.47
2022-10-06T16:49:17.838Z,6.40
2022-10-06T16:51:46.808Z,6.87
2022-10-06T16:54:17.135Z,7.20
2022-10-06T16:56:46.518Z,6.23
2022-10-06T16:59:15.777Z,7.40
2022-10-06T17:01:46.045Z,5.50
2022-10-06T17:04:15.870Z,5.90
2022-10-06T17:06:45.488Z,5.20
2022-10-06T17:09:16.284Z,5.17
2022-10-06T17:11:45.849Z,5.83
2022-10-06T17:14:14.017Z,4.93
2022-10-06T17:16:43.922Z,5.23
2022-10-06T17:19:14.589Z,5.43
2022-10-06T17:21:48.129Z,5.37
2022-10-06T17:24:18.614Z,5.93
2022-10-06T17:26:48.189Z,5.30
2022-10-06T17:29:18.790Z,5.30
2022-10-06T17:31:47.390Z,5.70
2022-10-06T17:34:20.838Z,5.80
2022-10-06T17:36:51.153Z,5.63
2022-10-06T17:39:20.725Z,6.10
2022-10-06T17:41:49.846Z,6.13
2022-10-06T17:44:23.296Z,6.03
2022-10-06T17:46:53.930Z,5.97
2022-10-06T17:49:24.900Z,5.40
2022-10-06T17:51:54.512Z,5.50
2022-10-06T17:54:24.698Z,5.40
2022-10-06T17:56:54.220Z,5.30
2022-10-06T17:59:24.686Z,5.63
2022-10-06T18:01:56.393Z,5.83
2022-10-06T18:04:26.564Z,5.97
2022-10-06T18:06:55.181Z,5.70
2022-10-06T18:09:23.916Z,6.30
2022-10-06T18:11:55.961Z,6.63
2022-10-06T18:14:25.793Z,6.53
2022-10-06T18:16:56.787Z,5.90
2022-10-06T18:19:30.093Z,6.37
2022-10-06T18:22:00.512Z,5.90
2022-10-06T18:24:30.529Z,5.57
2022-10-06T18:27:00.591Z,5.67
2022-10-06T18:29:30.848Z,5.50
2022-10-06T18:32:15.493Z,5.93
2022-10-06T18:38:01.890Z,5.90
2022-10-06T18:40:30.001Z,5.60
2022-10-06T18:42:58.138Z,5.30
2022-10-06T18:45:43.845Z,6.40
2022-10-06T18:48:34.734Z,6.10
2022-10-06T18:51:04.369Z,6.73
2022-10-06T18:53:32.683Z,5.40
2022-10-06T18:56:00.744Z,5.93
2022-10-06T18:58:29.189Z,6.00
2022-10-06T19:00:57.622Z,6.30
2022-10-06T19:03:28.691Z,6.33
2022-10-06T19:05:58.769Z,5.90
2022-10-06T19:08:28.244Z,6.73
2022-10-06T19:11:13.799Z,6.33
2022-10-06T19:13:47.278Z,6.20
2022-10-06T19:16:16.030Z,6.10
2022-10-06T19:18:44.169Z,6.10
2022-10-06T19:21:12.375Z,6.67
2022-10-06T19:23:42.174Z,6.37
2022-10-06T19:26:12.028Z,5.80
2022-10-06T19:28:40.711Z,5.90
2022-10-06T19:31:11.721Z,6.00
2022-10-06T19:33:40.415Z,5.90
2022-10-06T19:36:10.016Z,5.83
2022-10-06T19:38:38.946Z,5.40
2022-10-06T19:41:26.066Z,5.67
2022-10-06T19:43:54.252Z,5.37
2022-10-06T19:46:22.476Z,5.50
2022-10-06T19:48:55.319Z,5.30
2022-10-06T19:51:24.409Z,6.40
2022-10-06T19:53:52.588Z,5.20
2022-10-06T19:56:25.187Z,5.77
2022-10-06T19:58:53.728Z,6.17
2022-10-06T20:01:21.872Z,7.00
2022-10-06T20:03:50.063Z,7.90
2022-10-06T20:06:18.307Z,7.37
2022-10-06T20:08:46.366Z,7.17
2022-10-06T20:11:16.159Z,7.23
2022-10-06T20:13:46.294Z,6.30
2022-10-06T20:16:17.320Z,6.50
2022-10-06T20:18:46.961Z,6.73
2022-10-06T20:21:17.428Z,7.07
2022-10-06T20:23:49.140Z,6.73
2022-10-06T20:26:19.174Z,5.90
2022-10-06T20:28:49.101Z,5.67
2022-10-06T20:31:19.822Z,5.47
2022-10-06T20:34:13.447Z,5.60
2022-10-06T20:36:41.508Z,5.70
2022-10-06T20:39:30.565Z,5.30
2022-10-06T20:41:58.619Z,5.87
2022-10-06T20:44:53.106Z,6.20
2022-10-06T20:47:21.241Z,6.37
2022-10-06T20:49:54.249Z,6.50
2022-10-06T20:52:23.190Z,6.23
2022-10-06T20:54:51.308Z,6.20
2022-10-06T20:57:19.672Z,5.93
2022-10-06T20:59:48.459Z,6.43
2022-10-06T21:02:18.002Z,5.93
2022-10-06T21:04:46.274Z,6.00
2022-10-06T21:07:14.424Z,6.50
2022-10-06T21:09:42.585Z,6.40
2022-10-06T21:12:10.830Z,6.53
2022-10-06T21:14:42.357Z,6.60
2022-10-06T21:17:10.624Z,7.10
2022-10-06T21:19:40.255Z,7.93
2022-10-06T21:22:08.478Z,8.80
2022-10-06T21:24:36.642Z,9.00
2022-10-06T21:27:05.054Z,8.73
2022-10-06T21:29:33.301Z,8.53
2022-10-06T21:32:01.538Z,7.50
2022-10-06T21:34:29.768Z,8.40
2022-10-06T21:37:24.264Z,6.53
2022-10-06T21:39:52.668Z,6.90
2022-10-06T21:42:20.994Z,6.70
2022-10-06T21:44:49.553Z,6.17
2022-10-06T21:47:17.887Z,5.83
2022-10-06T21:49:46.222Z,6.27
2022-10-06T21:52:14.424Z,5.80
2022-10-06T21:54:43.977Z,6.40
2022-10-06T21:57:15.482Z,6.03
2022-10-06T21:59:43.653Z,6.53
2022-10-06T22:02:11.931Z,6.47
2022-10-06T22:04:40.545Z,6.33
2022-10-06T22:07:08.746Z,5.90
2022-10-06T22:09:36.896Z,6.10
2022-10-06T22:12:06.627Z,5.87
2022-10-06T22:14:34.859Z,5.30
2022-10-06T22:17:05.020Z,5.10
2022-10-06T22:19:33.263Z,6.17
2022-10-06T22:22:01.474Z,5.37
2022-10-06T22:24:29.754Z,5.57
2022-10-06T22:26:58.937Z,5.47
2022-10-06T22:29:28.553Z,5.60
2022-10-06T22:31:58.824Z,5.87
2022-10-06T22:34:27.777Z,5.90
2022-10-06T22:36:55.967Z,5.50
2022-10-06T22:39:24.166Z,6.17
2022-10-06T22:41:52.306Z,6.07
2022-10-06T22:44:20.456Z,5.80
2022-10-06T22:46:50.090Z,4.80
2022-10-06T22:49:18.362Z,5.40
2022-10-06T22:51:46.563Z,5.50
2022-10-06T22:54:18.860Z,5.50
2022-10-06T22:56:47.039Z,4.90
2022-10-06T22:59:15.234Z,4.90
2022-10-06T23:01:43.384Z,5.50
2022-10-06T23:04:12.982Z,5.43
2022-10-06T23:06:41.174Z,5.40
2022-10-06T23:09:09.374Z,5.60
2022-10-06T23:11:37.564Z,5.80
2022-10-06T23:14:05.727Z,5.40
2022-10-06T23:16:34.030Z,5.53
2022-10-06T23:19:02.219Z,5.93
2022-10-06T23:21:32.420Z,5.60
2022-10-06T23:24:01.175Z,5.57
2022-10-06T23:26:29.530Z,5.47
2022-10-06T23:28:59.175Z,5.70
2022-10-06T23:31:28.086Z,6.00
2022-10-06T23:33:56.353Z,6.03
2022-10-06T23:36:24.568Z,5.60
2022-10-06T23:38:54.090Z,6.27
2022-10-06T23:41:22.778Z,5.80
2022-10-06T23:43:50.980Z,5.67
2022-10-06T23:46:19.344Z,5.50
2022-10-06T23:48:47.570Z,5.57
2022-10-06T23:51:16.436Z,6.30
2022-10-06T23:53:44.917Z,6.03
2022-10-06T23:56:14.951Z,5.53
2022-10-06T23:58:43.727Z,5.93
